Time;durP1;ratioP1;P1;durP2;ratioP2;P2;SDS_P1;SDS_P2;PMS_P1;PMS_P2;Temp;Humidity;BMP_temperature;BMP_pressure;BME280_temperature;BME280_humidity;BME280_pressure;Samples;Min_cycle;Max_cycle;Signal;HPM_P1;HPM_P2
2022/08/20 00:00:16;;;;;;;12.90;10.43;;;19.00;99.90;;;;;;5011579;28;20516;-83
2022/08/20 00:02:48;;;;;;;14.00;10.25;;;18.90;99.90;;;;;;5010880;28;20072;-82
2022/08/20 00:05:16;;;;;;;15.55;9.85;;;19.00;99.90;;;;;;5025705;28;20037;-83
2022/08/20 00:07:41;;;;;;;16.20;10.40;;;18.90;99.90;;;;;;5028163;28;20405;-83
2022/08/20 00:10:08;;;;;;;13.88;10.55;;;18.90;99.90;;;;;;5029367;28;20044;-82
2022/08/20 00:12:35;;;;;;;20.38;10.88;;;18.90;99.90;;;;;;5044092;28;20049;-82
2022/08/20 00:15:04;;;;;;;19.25;11.60;;;18.90;99.90;;;;;;5030054;28;20037;-82
2022/08/20 00:17:36;;;;;;;18.60;11.35;;;18.90;99.90;;;;;;5011042;28;21541;-82
2022/08/20 00:20:04;;;;;;;13.90;10.82;;;18.90;99.90;;;;;;5009442;28;20055;-82
2022/08/20 00:22:30;;;;;;;17.80;11.00;;;18.80;99.90;;;;;;5010581;28;20047;-83
2022/08/20 00:24:56;;;;;;;15.93;11.90;;;18.80;99.90;;;;;;5044657;28;20037;-83
2022/08/20 00:27:21;;;;;;;16.23;11.55;;;19.00;99.90;;;;;;4997141;28;20338;-83
2022/08/20 00:29:47;;;;;;;19.90;11.82;;;18.80;99.90;;;;;;5009880;28;20035;-82
2022/08/20 00:32:13;;;;;;;19.35;12.43;;;18.80;99.90;;;;;;5027160;28;20075;-82
2022/08/20 00:34:39;;;;;;;18.20;12.57;;;18.80;99.90;;;;;;5011936;28;20037;-82
2022/08/20 00:37:04;;;;;;;20.63;12.65;;;18.70;99.90;;;;;;5011089;28;20076;-82
2022/08/20 00:39:30;;;;;;;18.52;11.77;;;18.70;99.90;;;;;;5014111;28;20041;-82
2022/08/20 00:41:56;;;;;;;15.38;11.70;;;18.70;99.90;;;;;;5032535;28;20041;-82
2022/08/20 00:44:22;;;;;;;14.75;11.13;;;18.70;99.90;;;;;;5031155;28;20116;-82
2022/08/20 00:46:48;;;;;;;16.45;11.30;;;18.70;99.90;;;;;;4998729;28;21338;-82
2022/08/20 00:49:27;;;;;;;18.15;12.27;;;18.60;99.90;;;;;;5031468;28;20092;-82
2022/08/20 00:52:11;;;;;;;19.50;12.73;;;18.70;99.90;;;;;;5031811;28;20071;-82
2022/08/20 00:54:52;;;;;;;17.90;12.48;;;18.60;99.90;;;;;;5013413;28;20040;-82
2022/08/20 00:57:30;;;;;;;17.20;12.32;;;18.60;99.90;;;;;;5016116;28;20045;-82
2022/08/20 00:59:57;;;;;;;22.40;12.30;;;18.60;99.90;;;;;;5030726;28;20048;-82
2022/08/20 01:02:26;;;;;;;22.58;13.88;;;18.60;99.90;;;;;;5044445;28;20049;-82
2022/08/20 01:04:53;;;;;;;20.63;13.15;;;18.50;99.90;;;;;;5026800;28;20044;-82
2022/08/20 01:07:30;;;;;;;19.23;12.27;;;18.50;99.90;;;;;;5030169;28;20120;-83
2022/08/20 01:09:56;;;;;;;16.17;12.73;;;18.50;99.90;;;;;;5013957;28;20116;-82
2022/08/20 01:12:22;;;;;;;20.88;12.80;;;18.50;99.90;;;;;;4998832;28;20506;-82
2022/08/20 01:14:48;;;;;;;27.90;12.80;;;18.50;99.90;;;;;;5014899;28;20481;-82
2022/08/20 01:17:21;;;;;;;19.08;12.60;;;18.50;99.90;;;;;;5047459;28;20041;-82
2022/08/20 01:20:05;;;;;;;18.00;12.60;;;18.50;99.90;;;;;;5015782;28;20076;-82
2022/08/20 01:26:07;;;;;;;20.70;12.50;;;18.50;99.90;;;;;;5031917;28;20132;-82
2022/08/20 01:28:42;;;;;;;17.10;12.45;;;18.50;99.90;;;;;;5013512;28;20041;-82
2022/08/20 01:31:12;;;;;;;17.40;13.43;;;18.50;99.90;;;;;;5014794;28;20033;-83
2022/08/20 01:33:38;;;;;;;17.08;12.73;;;18.40;99.90;;;;;;4997245;28;20081;-83
2022/08/20 01:36:06;;;;;;;21.55;12.15;;;18.40;99.90;;;;;;5001859;28;20048;-83
2022/08/20 01:38:32;;;;;;;17.67;11.95;;;18.40;99.90;;;;;;4992698;28;20038;-83
2022/08/20 01:41:27;;;;;;;19.13;13.05;;;18.40;99.90;;;;;;5011949;28;20075;-82
2022/08/20 01:43:56;;;;;;;18.23;12.40;;;18.30;99.90;;;;;;5008174;28;20071;-82
2022/08/20 01:46:28;;;;;;;20.20;12.43;;;18.30;99.90;;;;;;5022122;28;20094;-82
2022/08/20 01:48:55;;;;;;;16.95;11.75;;;18.30;99.90;;;;;;5026354;28;20034;-82
2022/08/20 01:51:26;;;;;;;19.98;12.18;;;18.20;99.90;;;;;;5005988;28;20033;-83
2022/08/20 01:53:54;;;;;;;21.58;11.95;;;18.30;99.90;;;;;;5010690;28;20555;-82
2022/08/20 01:56:24;;;;;;;20.08;12.93;;;18.20;99.90;;;;;;5027048;28;20041;-82
2022/08/20 01:58:52;;;;;;;16.63;11.63;;;18.20;99.90;;;;;;5010937;28;20029;-82
2022/08/20 02:01:23;;;;;;;17.33;11.55;;;18.10;99.90;;;;;;5009625;28;20044;-82
2022/08/20 02:03:49;;;;;;;23.77;11.70;;;18.10;99.90;;;;;;5013069;28;20041;-82
2022/08/20 02:06:16;;;;;;;19.58;11.02;;;18.10;99.90;;;;;;5011114;28;20037;-82
2022/08/20 02:08:41;;;;;;;17.77;11.70;;;18.10;99.90;;;;;;4998342;28;20045;-82
2022/08/20 02:11:08;;;;;;;17.75;10.85;;;18.10;99.90;;;;;;5012355;28;20394;-82
2022/08/20 02:13:34;;;;;;;20.95;11.57;;;18.10;99.90;;;;;;5003094;28;20033;-82
2022/08/20 02:16:00;;;;;;;19.38;11.18;;;18.10;99.90;;;;;;4981313;28;20072;-82
2022/08/20 02:18:25;;;;;;;20.17;11.63;;;18.10;99.90;;;;;;5017514;28;20033;-82
2022/08/20 02:20:52;;;;;;;18.25;11.38;;;18.10;99.90;;;;;;4994601;28;20099;-82
2022/08/20 02:23:18;;;;;;;17.23;10.35;;;18.00;99.90;;;;;;4978096;28;20633;-82
2022/08/20 02:25:46;;;;;;;17.80;11.60;;;18.10;99.90;;;;;;5002070;28;20037;-82
2022/08/20 02:28:15;;;;;;;23.33;11.57;;;18.00;99.90;;;;;;5008940;28;20033;-82
2022/08/20 02:30:46;;;;;;;24.15;10.93;;;18.00;99.90;;;;;;4993194;28;20103;-83
2022/08/20 02:33:15;;;;;;;19.05;10.60;;;18.00;99.90;;;;;;5009795;28;20049;-82
2022/08/20 02:35:42;;;;;;;17.52;10.13;;;18.00;99.90;;;;;;5029908;28;20933;-82
2022/08/20 02:38:09;;;;;;;23.27;11.65;;;17.90;99.90;;;;;;5001116;28;20510;-82
2022/08/20 02:40:36;;;;;;;21.23;11.05;;;17.90;99.90;;;;;;5033249;28;20090;-82
2022/08/20 02:43:04;;;;;;;19.05;9.98;;;17.90;99.90;;;;;;5033534;28;20106;-82
2022/08/20 02:45:42;;;;;;;17.73;10.65;;;17.90;99.90;;;;;;5017828;28;20037;-82
2022/08/20 02:48:10;;;;;;;23.17;11.48;;;17.80;99.90;;;;;;5018070;28;20056;-82
2022/08/20 02:50:36;;;;;;;14.73;10.80;;;17.80;99.90;;;;;;5036344;28;20056;-82
2022/08/20 02:53:01;;;;;;;19.45;11.25;;;17.80;99.90;;;;;;5031900;28;20059;-82
2022/08/20 02:55:27;;;;;;;16.50;10.85;;;17.80;99.90;;;;;;5028175;28;20040;-82
2022/08/20 02:57:55;;;;;;;17.02;10.50;;;17.80;99.90;;;;;;5034912;28;20028;-82
2022/08/20 03:00:21;;;;;;;20.67;11.45;;;17.80;99.90;;;;;;5017231;28;20118;-82
2022/08/20 03:02:47;;;;;;;21.33;10.65;;;17.80;99.90;;;;;;5034213;28;20044;-82
2022/08/20 03:05:13;;;;;;;17.70;10.98;;;17.70;99.90;;;;;;5034525;28;20555;-83
2022/08/20 03:07:47;;;;;;;16.42;10.73;;;17.70;99.90;;;;;;5019459;28;20406;-82
2022/08/20 03:10:13;;;;;;;15.25;10.35;;;17.70;99.90;;;;;;5034256;28;20028;-82
2022/08/20 03:12:40;;;;;;;19.52;10.23;;;17.60;99.90;;;;;;5034428;28;20193;-83
2022/08/20 03:15:07;;;;;;;15.63;10.30;;;17.60;99.90;;;;;;5018127;28;20045;-83
2022/08/20 03:17:33;;;;;;;24.98;10.35;;;17.60;99.90;;;;;;5016054;28;20063;-83
2022/08/20 03:19:59;;;;;;;17.25;9.88;;;17.60;99.90;;;;;;5005500;28;20057;-83
2022/08/20 03:22:25;;;;;;;15.68;10.48;;;17.60;99.90;;;;;;4998046;28;20075;-82
2022/08/20 03:24:50;;;;;;;20.45;10.90;;;17.50;99.90;;;;;;4984967;28;20036;-82
2022/08/20 03:27:16;;;;;;;18.50;11.23;;;17.50;99.90;;;;;;4984441;28;20064;-83
2022/08/20 03:29:41;;;;;;;21.35;10.52;;;17.40;99.90;;;;;;5017367;28;20040;-83
2022/08/20 03:32:07;;;;;;;22.90;11.63;;;17.40;99.90;;;;;;4976769;28;20119;-83
2022/08/20 03:34:33;;;;;;;17.95;10.55;;;17.30;99.90;;;;;;4997270;28;20045;-83
2022/08/20 03:36:59;;;;;;;19.35;11.27;;;17.30;99.90;;;;;;5013299;28;20088;-83
2022/08/20 03:39:25;;;;;;;20.70;11.13;;;17.30;99.90;;;;;;5013394;28;20037;-83
2022/08/20 03:41:50;;;;;;;17.30;10.18;;;17.30;99.90;;;;;;4980389;28;20045;-83
2022/08/20 03:44:17;;;;;;;14.77;9.65;;;17.20;99.90;;;;;;4979657;28;20192;-83
2022/08/20 03:46:43;;;;;;;17.83;10.32;;;17.30;99.90;;;;;;4980112;28;20064;-83
2022/08/20 03:49:09;;;;;;;16.70;10.10;;;17.20;99.90;;;;;;5012794;28;20112;-83
2022/08/20 03:51:35;;;;;;;22.70;10.65;;;17.20;99.90;;;;;;5000866;28;20491;-83
2022/08/20 03:54:00;;;;;;;15.45;10.40;;;17.20;99.90;;;;;;4993389;28;20409;-83
2022/08/20 03:56:27;;;;;;;21.70;10.20;;;17.20;99.90;;;;;;5010135;28;20091;-83
2022/08/20 03:58:53;;;;;;;15.43;9.75;;;17.20;99.90;;;;;;5019462;28;20037;-83
2022/08/20 04:01:19;;;;;;;15.00;9.57;;;17.10;99.90;;;;;;5018394;28;20037;-82
2022/08/20 04:03:46;;;;;;;20.65;9.43;;;17.10;99.90;;;;;;5012177;28;20033;-82
2022/08/20 04:06:11;;;;;;;20.17;9.90;;;17.10;99.90;;;;;;5012523;28;20049;-82
2022/08/20 04:08:40;;;;;;;17.98;9.70;;;17.10;99.90;;;;;;4980344;28;20029;-83
2022/08/20 04:11:06;;;;;;;15.35;9.82;;;17.10;99.90;;;;;;5014521;28;20034;-83
2022/08/20 04:13:31;;;;;;;18.25;10.45;;;17.00;99.90;;;;;;4980465;28;20379;-82
2022/08/20 04:16:01;;;;;;;21.10;9.23;;;17.00;99.90;;;;;;5012429;28;20068;-82
2022/08/20 04:18:26;;;;;;;13.82;9.00;;;16.90;99.90;;;;;;5011420;28;20122;-82
2022/08/20 04:20:53;;;;;;;15.50;9.30;;;16.90;99.90;;;;;;4996507;28;20092;-82
2022/08/20 04:23:20;;;;;;;13.20;9.68;;;16.90;99.90;;;;;;4981816;28;20051;-83
2022/08/20 04:25:46;;;;;;;21.27;9.05;;;16.90;99.90;;;;;;5019534;28;20037;-82
2022/08/20 04:28:25;;;;;;;15.63;9.77;;;16.80;99.90;;;;;;4985979;28;20048;-83
2022/08/20 04:30:52;;;;;;;20.00;8.70;;;16.80;99.90;;;;;;4998102;28;20120;-83
2022/08/20 04:33:24;;;;;;;19.45;8.77;;;16.80;99.90;;;;;;5010711;28;21017;-83
2022/08/20 04:35:51;;;;;;;14.70;8.52;;;16.70;99.90;;;;;;5030638;28;20442;-83
2022/08/20 04:38:18;;;;;;;14.95;8.43;;;16.70;99.90;;;;;;5013330;28;20116;-83
2022/08/20 04:40:53;;;;;;;19.40;8.40;;;16.70;99.90;;;;;;5032229;28;20045;-82
2022/08/20 04:43:22;;;;;;;15.02;7.95;;;16.70;99.90;;;;;;5032996;28;20051;-83
2022/08/20 04:45:50;;;;;;;14.32;8.18;;;16.70;99.90;;;;;;5031707;28;20515;-83
2022/08/20 04:48:16;;;;;;;14.75;8.00;;;16.60;99.90;;;;;;5029355;28;20457;-83
2022/08/20 04:50:44;;;;;;;15.27;7.95;;;16.60;99.90;;;;;;5015353;28;20056;-83
2022/08/20 04:53:11;;;;;;;15.30;8.52;;;16.60;99.90;;;;;;5014635;28;20032;-83
2022/08/20 04:55:41;;;;;;;19.52;8.60;;;16.60;99.90;;;;;;5031831;28;20047;-83
2022/08/20 04:58:10;;;;;;;18.15;8.50;;;16.60;99.90;;;;;;5031727;28;20138;-83
2022/08/20 05:00:37;;;;;;;16.67;7.97;;;16.60;99.90;;;;;;5014929;28;20048;-82
2022/08/20 05:03:03;;;;;;;17.48;8.45;;;16.60;99.90;;;;;;5015217;28;20033;-83
2022/08/20 05:05:29;;;;;;;12.75;7.45;;;16.60;99.90;;;;;;4999188;28;20048;-83
2022/08/20 05:07:56;;;;;;;16.85;7.63;;;16.60;99.90;;;;;;5031464;28;20379;-83
2022/08/20 05:10:24;;;;;;;14.13;7.15;;;16.60;99.90;;;;;;4998729;28;20036;-83
2022/08/20 05:12:49;;;;;;;16.30;7.63;;;16.60;99.90;;;;;;5015049;28;20574;-83
2022/08/20 05:15:15;;;;;;;15.90;8.77;;;16.60;99.90;;;;;;5014451;28;20052;-83
2022/08/20 05:17:43;;;;;;;14.07;7.45;;;16.60;99.90;;;;;;5031365;28;20037;-82
2022/08/20 05:20:12;;;;;;;13.88;7.70;;;16.60;99.90;;;;;;5014833;28;20095;-82
2022/08/20 05:22:38;;;;;;;18.52;7.80;;;16.60;99.90;;;;;;5015229;28;20049;-83
2022/08/20 05:25:04;;;;;;;17.63;8.45;;;16.60;99.90;;;;;;5030284;28;20141;-83
2022/08/20 05:27:31;;;;;;;17.13;7.57;;;16.60;99.90;;;;;;5015617;28;20033;-82
2022/08/20 05:30:08;;;;;;;12.77;7.13;;;16.50;99.90;;;;;;5030373;28;20481;-82
2022/08/20 05:32:35;;;;;;;18.30;8.52;;;16.50;99.90;;;;;;5010630;28;20050;-83
2022/08/20 05:35:06;;;;;;;20.58;7.32;;;16.50;99.90;;;;;;4995817;28;20556;-83
2022/08/20 05:37:35;;;;;;;14.00;6.73;;;16.50;99.90;;;;;;5011169;28;20394;-83
2022/08/20 05:40:01;;;;;;;16.45;7.97;;;16.40;99.90;;;;;;4994067;28;20041;-82
2022/08/20 05:42:27;;;;;;;13.73;6.88;;;16.40;99.90;;;;;;4995438;28;20124;-83
2022/08/20 05:44:53;;;;;;;13.52;6.78;;;16.40;99.90;;;;;;4993616;28;20045;-83
2022/08/20 05:47:19;;;;;;;12.85;7.40;;;16.40;99.90;;;;;;4966206;28;20056;-84
2022/08/20 05:49:45;;;;;;;15.90;7.10;;;16.40;99.90;;;;;;4995617;28;20086;-83
2022/08/20 05:52:11;;;;;;;13.82;7.10;;;16.30;99.90;;;;;;4984609;28;20044;-83
2022/08/20 05:54:38;;;;;;;14.30;7.20;;;16.40;99.90;;;;;;4960695;28;20038;-84
2022/08/20 05:57:04;;;;;;;18.00;8.30;;;16.40;99.90;;;;;;5015013;28;20041;-84
2022/08/20 05:59:29;;;;;;;13.30;6.85;;;16.40;99.90;;;;;;5009759;28;20046;-83
2022/08/20 06:01:55;;;;;;;15.82;7.50;;;16.40;99.90;;;;;;5013356;28;20120;-83
2022/08/20 06:04:23;;;;;;;14.60;7.10;;;16.40;99.90;;;;;;4980138;28;20041;-84
2022/08/20 06:07:00;;;;;;;14.30;7.00;;;16.40;99.90;;;;;;4995076;28;20120;-83
2022/08/20 06:09:26;;;;;;;18.13;7.18;;;16.50;99.90;;;;;;4994117;28;20065;-84
2022/08/20 06:11:52;;;;;;;18.60;7.32;;;16.40;99.90;;;;;;5016390;28;20032;-84
2022/08/20 06:14:19;;;;;;;14.93;6.50;;;16.40;99.90;;;;;;5035798;28;20723;-83
2022/08/20 06:16:45;;;;;;;13.98;6.65;;;16.40;99.90;;;;;;4994604;28;20506;-83
2022/08/20 06:19:11;;;;;;;13.73;6.53;;;16.40;99.90;;;;;;5012759;28;20422;-83
2022/08/20 06:21:39;;;;;;;11.88;5.80;;;16.40;99.90;;;;;;4995010;28;20116;-82
2022/08/20 06:24:05;;;;;;;16.58;6.00;;;16.40;99.90;;;;;;4996263;28;20030;-82
2022/08/20 06:26:33;;;;;;;13.63;6.47;;;16.40;99.90;;;;;;5003381;28;20063;-82
2022/08/20 06:29:03;;;;;;;12.77;5.72;;;16.50;99.90;;;;;;5010120;28;20107;-82
2022/08/20 06:31:30;;;;;;;9.85;5.50;;;16.50;99.90;;;;;;5008979;28;20041;-82
2022/08/20 06:33:56;;;;;;;11.80;5.30;;;16.60;99.90;;;;;;4993065;28;20134;-82
2022/08/20 06:36:21;;;;;;;14.30;5.07;;;16.70;99.90;;;;;;5006550;28;20060;-82
2022/08/20 06:38:47;;;;;;;10.75;4.80;;;16.80;99.90;;;;;;4993346;28;20040;-82
2022/08/20 06:41:13;;;;;;;10.48;5.05;;;17.00;99.90;;;;;;5007185;28;20051;-76
2022/08/20 06:43:39;;;;;;;11.73;4.53;;;17.10;99.90;;;;;;5000535;28;20037;-76
2022/08/20 06:46:05;;;;;;;5.75;3.90;;;17.20;99.90;;;;;;5023623;28;20087;-76
2022/08/20 06:48:31;;;;;;;11.50;4.00;;;17.30;99.90;;;;;;4978303;28;20175;-76
2022/08/20 06:50:57;;;;;;;12.02;3.90;;;17.30;99.90;;;;;;4977419;28;20534;-76
2022/08/20 06:53:22;;;;;;;8.60;3.70;;;17.40;99.90;;;;;;4995705;28;20039;-76
2022/08/20 06:55:52;;;;;;;6.45;3.00;;;17.50;99.90;;;;;;4981809;28;20104;-76
2022/08/20 06:58:19;;;;;;;12.25;3.28;;;17.60;99.90;;;;;;4989792;28;20077;-77
2022/08/20 07:00:46;;;;;;;8.73;3.30;;;17.60;99.90;;;;;;5017927;28;20036;-76
2022/08/20 07:03:13;;;;;;;10.60;3.25;;;17.60;99.90;;;;;;4995945;28;20132;-76
2022/08/20 07:05:43;;;;;;;10.43;3.55;;;17.60;99.90;;;;;;5010741;28;20562;-76
2022/08/20 07:08:17;;;;;;;10.35;3.38;;;17.60;99.90;;;;;;4996982;28;20033;-77
2022/08/20 07:10:43;;;;;;;9.30;2.90;;;17.60;99.90;;;;;;5059597;28;20060;-76
2022/08/20 07:13:10;;;;;;;6.63;2.80;;;17.60;99.90;;;;;;5015956;28;20089;-77
2022/08/20 07:15:37;;;;;;;11.15;2.97;;;17.60;99.90;;;;;;5000126;28;20029;-77
2022/08/20 07:18:05;;;;;;;9.73;3.35;;;17.50;99.90;;;;;;4994724;28;20617;-76
2022/08/20 07:20:33;;;;;;;7.03;2.95;;;17.60;99.90;;;;;;5009248;28;20037;-76
2022/08/20 07:22:59;;;;;;;7.82;2.92;;;17.60;99.90;;;;;;5015242;28;20071;-77
2022/08/20 07:25:25;;;;;;;9.48;3.28;;;17.80;99.90;;;;;;4990453;28;20073;-76
2022/08/20 07:27:52;;;;;;;12.63;3.53;;;17.90;99.90;;;;;;5015731;28;20069;-77
2022/08/20 07:33:05;;;;;;;10.20;3.40;;;18.20;99.90;;;;;;5016284;28;20049;-77
2022/08/20 07:35:31;;;;;;;9.27;3.42;;;18.30;99.90;;;;;;4997167;28;20041;-76
2022/08/20 07:37:57;;;;;;;8.85;3.10;;;18.20;99.90;;;;;;4995291;28;20164;-76
2022/08/20 07:40:29;;;;;;;9.20;2.90;;;18.20;99.90;;;;;;5015736;28;20091;-76
2022/08/20 07:42:57;;;;;;;7.03;3.08;;;18.10;99.90;;;;;;5011759;28;20383;-78
2022/08/20 07:45:23;;;;;;;10.38;3.20;;;18.10;99.90;;;;;;5006808;28;20128;-75
2022/08/20 07:47:52;;;;;;;9.70;2.65;;;18.10;99.90;;;;;;4996277;28;20037;-76
2022/08/20 07:50:22;;;;;;;9.43;2.80;;;18.10;99.90;;;;;;4992987;28;20045;-75
2022/08/20 07:52:51;;;;;;;11.05;2.80;;;18.20;99.90;;;;;;5010573;28;20037;-75
2022/08/20 07:55:17;;;;;;;15.30;2.88;;;18.20;99.90;;;;;;4991536;28;20046;-75
2022/08/20 07:57:45;;;;;;;7.85;2.40;;;18.40;99.90;;;;;;4991155;28;20123;-75
2022/08/20 08:00:12;;;;;;;6.07;2.08;;;18.50;99.90;;;;;;4992484;28;20080;-75
2022/08/20 08:02:38;;;;;;;7.95;2.33;;;18.60;99.90;;;;;;5007596;28;20037;-75
2022/08/20 08:05:05;;;;;;;7.60;2.60;;;18.70;99.90;;;;;;5010062;28;20103;-77
2022/08/20 08:07:32;;;;;;;5.13;2.33;;;18.80;99.90;;;;;;5024365;28;20041;-76
2022/08/20 08:10:00;;;;;;;9.90;2.35;;;18.90;99.90;;;;;;5017011;28;20407;-76
2022/08/20 08:12:32;;;;;;;5.82;1.98;;;19.00;99.90;;;;;;4992921;28;20037;-76
2022/08/20 08:14:58;;;;;;;6.55;2.15;;;18.90;99.90;;;;;;5013068;28;20495;-76
2022/08/20 08:17:24;;;;;;;6.05;2.13;;;18.90;99.90;;;;;;4991412;28;20553;-76
2022/08/20 08:19:50;;;;;;;4.90;1.75;;;18.90;99.90;;;;;;4994889;28;20042;-80
2022/08/20 08:22:18;;;;;;;5.93;2.20;;;18.80;99.90;;;;;;4974482;28;20069;-79
2022/08/20 08:24:45;;;;;;;5.22;2.60;;;18.80;99.90;;;;;;5014672;28;20038;-81
2022/08/20 08:27:12;;;;;;;7.07;2.20;;;18.70;99.90;;;;;;5012713;28;20044;-81
2022/08/20 08:29:38;;;;;;;7.22;1.92;;;18.70;99.90;;;;;;4983593;28;20042;-84
2022/08/20 08:32:05;;;;;;;6.30;2.30;;;18.70;99.90;;;;;;4998436;28;20103;-85
2022/08/20 08:34:34;;;;;;;6.40;2.05;;;18.90;99.90;;;;;;5026950;28;20120;-85
2022/08/20 08:37:01;;;;;;;7.45;2.08;;;19.30;99.90;;;;;;5015542;28;20119;-83
2022/08/20 08:39:29;;;;;;;6.85;1.80;;;19.70;99.90;;;;;;5030088;28;20494;-81
2022/08/20 08:41:57;;;;;;;5.78;2.17;;;19.90;99.90;;;;;;5031426;28;20048;-82
2022/08/20 08:44:34;;;;;;;4.40;1.98;;;20.10;99.90;;;;;;5030042;28;20041;-82
2022/08/20 08:47:23;;;;;;;5.45;1.77;;;20.20;99.90;;;;;;5030766;28;20112;-82
2022/08/20 08:49:49;;;;;;;5.88;1.67;;;20.20;99.90;;;;;;5015020;28;20073;-77
2022/08/20 08:52:27;;;;;;;3.28;1.70;;;20.30;99.90;;;;;;5031605;28;20379;-81
2022/08/20 08:54:56;;;;;;;4.80;1.75;;;20.40;99.90;;;;;;5046441;28;20068;-85
2022/08/20 08:57:23;;;;;;;7.78;1.92;;;20.60;99.90;;;;;;5031730;28;20079;-81
2022/08/20 08:59:55;;;;;;;9.90;2.08;;;20.70;99.90;;;;;;5030713;28;20044;-82
2022/08/20 09:02:22;;;;;;;;;;;20.80;99.90;;;;;;5013156;28;20379;-79
2022/08/20 09:04:50;;;;;;;6.43;1.70;;;21.00;99.90;;;;;;5012891;28;19929;-79
2022/08/20 09:07:17;;;;;;;3.47;1.77;;;21.10;99.90;;;;;;5028687;28;20048;-79
2022/08/20 09:09:45;;;;;;;5.38;1.77;;;21.20;99.90;;;;;;5029880;28;20036;-79
2022/08/20 09:12:18;;;;;;;6.05;1.33;;;21.30;99.90;;;;;;5030279;28;20049;-79
2022/08/20 09:14:46;;;;;;;5.53;1.77;;;21.40;99.90;;;;;;5013804;28;20481;-79
2022/08/20 09:17:13;;;;;;;3.33;1.10;;;21.50;99.90;;;;;;5031796;28;20111;-79
2022/08/20 09:19:38;;;;;;;5.80;1.88;;;21.50;99.90;;;;;;5008071;28;20037;-79
2022/08/20 09:22:17;;;;;;;6.35;1.40;;;21.60;99.90;;;;;;5014187;28;20079;-79
2022/08/20 09:24:43;;;;;;;4.63;1.58;;;21.60;99.90;;;;;;5030642;28;20033;-80
2022/08/20 09:27:09;;;;;;;5.53;1.27;;;21.70;99.90;;;;;;5016049;28;20087;-80
2022/08/20 09:29:35;;;;;;;4.88;1.42;;;21.90;99.90;;;;;;5014526;28;20115;-80
2022/08/20 09:32:12;;;;;;;3.67;1.08;;;22.00;99.90;;;;;;5028142;28;20510;-79
2022/08/20 09:34:40;;;;;;;5.35;1.50;;;22.00;99.90;;;;;;5000327;28;20045;-79
2022/08/20 09:37:06;;;;;;;4.82;1.30;;;22.00;99.90;;;;;;5013951;28;20124;-79
2022/08/20 09:39:32;;;;;;;5.95;1.55;;;22.20;99.90;;;;;;4994558;28;20040;-79
2022/08/20 09:42:20;;;;;;;3.70;1.42;;;22.20;99.90;;;;;;5029015;28;20045;-80
2022/08/20 09:44:46;;;;;;;4.18;1.30;;;22.30;99.90;;;;;;5032038;28;20088;-80
2022/08/20 09:47:12;;;;;;;4.22;1.20;;;22.30;99.90;;;;;;4978443;28;20037;-80
2022/08/20 09:49:38;;;;;;;10.60;1.88;;;22.30;99.90;;;;;;5012287;28;20040;-79
2022/08/20 09:52:07;;;;;;;4.70;1.42;;;22.40;99.50;;;;;;5003973;28;20043;-79
2022/08/20 09:54:34;;;;;;;4.72;1.40;;;22.50;99.90;;;;;;5004007;28;21995;-79
2022/08/20 09:57:03;;;;;;;5.93;1.70;;;22.60;99.90;;;;;;4988217;28;20079;-80
2022/08/20 09:59:30;;;;;;;6.13;1.45;;;22.80;99.80;;;;;;5016339;28;20548;-79
2022/08/20 10:01:56;;;;;;;3.03;1.05;;;22.60;97.20;;;;;;4990078;28;20176;-78
2022/08/20 10:04:21;;;;;;;4.22;1.10;;;22.50;96.90;;;;;;5010462;28;20141;-79
2022/08/20 10:06:47;;;;;;;3.03;1.15;;;22.50;97.60;;;;;;5007468;28;20068;-79
2022/08/20 10:09:13;;;;;;;10.45;2.03;;;22.70;97.60;;;;;;4995949;28;20041;-79
2022/08/20 10:11:39;;;;;;;4.88;1.63;;;22.90;96.80;;;;;;5015328;28;20524;-79
2022/08/20 10:14:06;;;;;;;6.68;1.77;;;22.90;96.80;;;;;;5015151;28;20048;-79
2022/08/20 10:16:32;;;;;;;3.63;1.33;;;23.10;97.10;;;;;;4977009;28;20032;-79
2022/08/20 10:18:58;;;;;;;5.03;1.63;;;23.20;97.20;;;;;;4974737;28;20456;-79
2022/08/20 10:21:24;;;;;;;7.70;1.58;;;23.20;97.00;;;;;;5008910;28;20037;-79
2022/08/20 10:23:49;;;;;;;5.25;1.80;;;23.40;96.00;;;;;;4978774;28;20128;-80
2022/08/20 10:26:16;;;;;;;6.10;1.88;;;23.50;95.40;;;;;;5000102;28;20034;-79
2022/08/20 10:28:42;;;;;;;3.78;1.58;;;23.60;95.10;;;;;;4977675;28;20045;-80
2022/08/20 10:31:10;;;;;;;4.43;1.70;;;23.60;95.10;;;;;;4979638;28;20135;-80
2022/08/20 10:33:37;;;;;;;5.40;2.10;;;23.70;95.00;;;;;;5008424;28;20111;-80
2022/08/20 10:36:07;;;;;;;3.50;1.20;;;23.90;94.80;;;;;;5026095;28;20044;-80
2022/08/20 10:38:33;;;;;;;7.50;1.80;;;24.00;92.00;;;;;;5026089;28;20032;-80
2022/08/20 10:40:59;;;;;;;5.38;1.17;;;24.10;91.80;;;;;;4992559;28;20041;-86
2022/08/20 10:43:25;;;;;;;2.90;1.50;;;24.00;91.30;;;;;;5009879;28;20044;-85
2022/08/20 10:45:51;;;;;;;5.35;1.83;;;24.10;91.40;;;;;;4998051;28;20052;-85
2022/08/20 10:48:17;;;;;;;6.03;1.70;;;24.20;91.30;;;;;;5044764;28;20045;-84
2022/08/20 10:50:42;;;;;;;5.35;1.60;;;24.20;91.00;;;;;;4996308;28;20099;-85
2022/08/20 10:53:08;;;;;;;5.22;1.50;;;24.20;90.20;;;;;;5014469;28;20047;-85
2022/08/20 10:55:34;;;;;;;5.30;1.55;;;23.90;88.50;;;;;;5011643;28;20122;-85
2022/08/20 10:57:59;;;;;;;10.43;1.80;;;23.80;88.80;;;;;;5014600;28;20041;-85
2022/08/20 11:00:25;;;;;;;6.72;1.55;;;23.70;89.50;;;;;;5014801;28;20492;-85
2022/08/20 11:02:51;;;;;;;2.38;1.05;;;23.60;88.80;;;;;;5034981;28;20112;-85
2022/08/20 11:05:17;;;;;;;4.57;1.63;;;23.50;90.50;;;;;;5020437;28;20041;-85
2022/08/20 11:07:44;;;;;;;3.30;1.40;;;23.40;90.30;;;;;;5034349;28;20029;-84
2022/08/20 11:10:10;;;;;;;6.55;1.52;;;23.50;91.10;;;;;;5032010;28;20119;-84
2022/08/20 11:12:36;;;;;;;4.35;1.30;;;23.60;90.70;;;;;;5034516;28;20033;-84
2022/08/20 11:15:02;;;;;;;5.18;1.40;;;23.70;91.00;;;;;;5016720;28;20111;-84
2022/08/20 11:17:32;;;;;;;4.85;1.30;;;23.80;91.00;;;;;;5033755;28;20041;-84
2022/08/20 11:19:59;;;;;;;5.65;1.33;;;23.60;90.10;;;;;;5015846;28;20079;-84
2022/08/20 11:22:26;;;;;;;7.25;1.27;;;23.50;90.50;;;;;;5006745;28;20087;-84
2022/08/20 11:24:52;;;;;;;5.57;1.63;;;23.30;90.80;;;;;;5016385;28;20045;-84
2022/08/20 11:27:34;;;;;;;6.25;1.48;;;23.30;90.80;;;;;;5034005;28;20032;-84
2022/08/20 11:30:00;;;;;;;2.85;1.52;;;23.50;90.60;;;;;;5032250;28;20398;-84
2022/08/20 11:32:26;;;;;;;3.22;1.23;;;23.80;91.20;;;;;;5033928;28;20053;-84
2022/08/20 11:34:52;;;;;;;4.72;1.58;;;24.00;90.80;;;;;;5033009;28;20045;-84
2022/08/20 11:37:22;;;;;;;4.60;1.50;;;24.40;90.80;;;;;;5017640;28;20036;-84
2022/08/20 11:39:48;;;;;;;3.47;1.70;;;24.70;90.40;;;;;;5015642;28;20478;-84
2022/08/20 11:42:13;;;;;;;3.95;1.45;;;25.00;88.10;;;;;;5016869;28;20052;-84
2022/08/20 11:44:39;;;;;;;3.65;1.45;;;25.20;86.90;;;;;;5016928;28;20610;-84
2022/08/20 11:47:07;;;;;;;3.65;1.65;;;25.30;86.70;;;;;;5000462;28;20510;-84
2022/08/20 11:49:35;;;;;;;4.22;1.45;;;25.30;85.60;;;;;;5014248;28;20124;-84
2022/08/20 11:52:01;;;;;;;5.03;1.45;;;25.50;85.70;;;;;;5000990;28;20091;-84
2022/08/20 11:54:27;;;;;;;3.80;1.60;;;25.30;84.20;;;;;;5034440;28;20068;-84
2022/08/20 11:56:56;;;;;;;3.97;1.70;;;25.00;83.20;;;;;;5016462;28;20065;-84
2022/08/20 11:59:23;;;;;;;6.40;1.90;;;24.60;83.30;;;;;;4983900;28;20036;-84
2022/08/20 12:01:52;;;;;;;5.32;1.77;;;24.50;81.70;;;;;;5000286;28;20087;-84
2022/08/20 12:04:17;;;;;;;6.15;1.40;;;24.20;81.70;;;;;;5017256;28;20033;-84
2022/08/20 12:06:43;;;;;;;4.50;1.20;;;23.90;83.80;;;;;;4999493;28;20550;-85
2022/08/20 12:09:09;;;;;;;3.70;1.30;;;23.70;83.90;;;;;;4983188;28;20506;-84
2022/08/20 12:11:34;;;;;;;2.45;1.27;;;23.60;84.20;;;;;;5015977;28;20029;-84
2022/08/20 12:14:00;;;;;;;2.95;1.13;;;23.60;85.50;;;;;;5015808;28;20033;-84
2022/08/20 12:16:25;;;;;;;6.80;1.95;;;23.60;86.20;;;;;;5014927;28;20037;-84
2022/08/20 12:18:51;;;;;;;3.10;1.30;;;23.40;85.70;;;;;;5000675;28;20041;-84
2022/08/20 12:21:18;;;;;;;2.47;1.55;;;23.30;85.80;;;;;;4999626;28;20559;-84
2022/08/20 12:23:45;;;;;;;3.95;1.27;;;23.40;86.80;;;;;;5016966;28;20041;-84
2022/08/20 12:26:11;;;;;;;7.55;1.80;;;23.60;86.50;;;;;;5049963;28;20091;-84
2022/08/20 12:28:36;;;;;;;3.35;1.42;;;23.80;86.40;;;;;;5016460;28;20056;-84
2022/08/20 12:31:02;;;;;;;6.30;1.63;;;23.90;85.40;;;;;;5000641;28;20040;-84
2022/08/20 12:33:28;;;;;;;5.40;1.60;;;23.80;83.90;;;;;;5019609;28;20077;-84
2022/08/20 12:35:55;;;;;;;4.75;2.03;;;23.60;82.40;;;;;;5039240;28;20712;-84
2022/08/20 12:38:21;;;;;;;8.15;2.17;;;23.70;83.80;;;;;;5022249;28;20029;-84
2022/08/20 12:40:46;;;;;;;3.97;1.42;;;23.60;83.70;;;;;;5049453;28;20179;-84
2022/08/20 12:43:12;;;;;;;7.40;2.58;;;23.60;83.10;;;;;;5007524;28;20048;-84
2022/08/20 12:45:38;;;;;;;8.82;2.00;;;23.60;85.40;;;;;;5001783;28;20072;-84